Time;durP1;ratioP1;P1;durP2;ratioP2;P2;SDS_P1;SDS_P2;PMS_P1;PMS_P2;Temp;Humidity;BMP_temperature;BMP_pressure;BME280_temperature;BME280_humidity;BME280_pressure;Samples;Min_cycle;Max_cycle;Signal;HPM_P1;HPM_P2
2021/03/20 00:00:45;;;;;;;7.62;5.50;;;;;;;3.56;66.19;100652.48;1706557;83;21152;-55
2021/03/20 00:03:13;;;;;;;7.20;4.70;;;;;;;3.46;66.47;100644.45;1689858;85;21209;-55
2021/03/20 00:05:41;;;;;;;6.72;4.83;;;;;;;3.41;66.55;100646.94;1681503;84;21183;-54
2021/03/20 00:08:09;;;;;;;7.45;4.85;;;;;;;3.38;66.58;100648.17;1682455;84;21207;-62
2021/03/20 00:10:39;;;;;;;7.17;4.73;;;;;;;3.34;66.62;100649.84;1663392;85;21136;-62
2021/03/20 00:13:07;;;;;;;7.15;4.85;;;;;;;3.32;66.66;100650.23;1693651;85;21338;-62
2021/03/20 00:15:34;;;;;;;6.92;5.03;;;;;;;3.31;66.67;100647.18;1697336;84;21172;-63
2021/03/20 00:18:03;;;;;;;6.87;4.50;;;;;;;3.71;65.42;100648.01;1697104;84;21176;-54
2021/03/20 00:20:35;;;;;;;8.10;5.10;;;;;;;3.37;66.37;100647.31;1678735;84;21164;-62
2021/03/20 00:23:03;;;;;;;7.72;5.10;;;;;;;4.29;63.97;100636.94;1669132;86;21176;-54
2021/03/20 00:25:31;;;;;;;8.15;4.80;;;;;;;4.35;63.41;100632.25;1669537;84;21117;-63
2021/03/20 00:28:00;;;;;;;6.92;4.90;;;;;;;4.33;63.15;100633.95;1672129;84;21154;-55
2021/03/20 00:30:27;;;;;;;7.17;4.85;;;;;;;4.30;63.17;100628.68;1685796;84;21124;-62
2021/03/20 00:32:55;;;;;;;6.97;4.53;;;;;;;4.27;63.12;100626.91;1691606;85;21128;-63
2021/03/20 00:35:23;;;;;;;7.85;4.97;;;;;;;4.26;63.14;100629.06;1694381;84;21153;-54
2021/03/20 00:37:52;;;;;;;7.03;4.85;;;;;;;4.27;63.03;100628.22;1689525;83;21571;-63
2021/03/20 00:40:27;;;;;;;7.60;4.72;;;;;;;4.29;62.97;100630.84;1680285;84;21164;-63
2021/03/20 00:42:54;;;;;;;7.62;4.80;;;;;;;4.31;62.84;100625.22;1697197;84;21330;-54
2021/03/20 00:45:25;;;;;;;7.00;4.55;;;;;;;4.32;62.70;100629.59;1696400;83;21286;-54
2021/03/20 00:47:52;;;;;;;6.00;4.37;;;;;;;4.28;62.58;100632.58;1690844;84;21291;-54
2021/03/20 00:50:23;;;;;;;7.47;4.80;;;;;;;4.25;62.55;100635.53;1691736;85;21163;-62
2021/03/20 00:52:51;;;;;;;9.15;6.10;;;;;;;4.22;62.59;100638.98;1692766;84;21180;-54
2021/03/20 00:55:19;;;;;;;6.97;4.85;;;;;;;4.22;62.68;100640.28;1695630;83;21168;-63
2021/03/20 00:57:47;;;;;;;8.98;5.28;;;;;;;4.22;62.62;100638.98;1671307;83;21168;-54
2021/03/20 01:00:19;;;;;;;7.70;5.37;;;;;;;4.25;62.65;100644.25;1688414;84;21191;-54
2021/03/20 01:02:47;;;;;;;9.30;5.50;;;;;;;4.27;62.59;100643.85;1694803;84;21303;-55
2021/03/20 01:05:15;;;;;;;7.53;5.47;;;;;;;4.28;62.50;100641.70;1688718;83;21164;-63
2021/03/20 01:07:43;;;;;;;8.53;4.78;;;;;;;4.28;62.49;100636.89;1676713;84;21124;-63
2021/03/20 01:10:18;;;;;;;9.58;5.78;;;;;;;4.27;62.39;100640.34;1714065;83;21188;-55
2021/03/20 01:12:46;;;;;;;7.65;5.12;;;;;;;4.24;62.42;100637.28;1697219;84;21250;-62
2021/03/20 01:15:17;;;;;;;8.70;5.25;;;;;;;4.21;62.45;100641.54;1678263;83;21191;-62
2021/03/20 01:17:44;;;;;;;8.18;4.83;;;;;;;4.19;62.45;100635.02;1700520;83;21196;-54
2021/03/20 01:20:14;;;;;;;7.22;4.83;;;;;;;4.18;62.47;100639.77;1705608;84;21132;-63
2021/03/20 01:22:42;;;;;;;6.77;4.60;;;;;;;4.15;62.51;100638.00;1706941;83;21337;-63
2021/03/20 01:25:11;;;;;;;7.33;4.90;;;;;;;4.10;62.40;100633.13;1679808;84;21168;-63
2021/03/20 01:27:39;;;;;;;7.33;5.00;;;;;;;4.04;62.39;100634.72;1700325;84;21185;-63
2021/03/20 01:30:12;;;;;;;8.38;5.47;;;;;;;4.00;62.44;100637.70;1706103;84;21171;-63
2021/03/20 01:32:39;;;;;;;6.75;5.00;;;;;;;4.00;62.56;100637.70;1699733;83;21187;-62
2021/03/20 01:35:09;;;;;;;7.87;5.22;;;;;;;3.98;62.59;100638.10;1677882;85;21172;-55
2021/03/20 01:37:36;;;;;;;7.05;5.08;;;;;;;3.97;62.63;100641.55;1694917;84;21206;-62
2021/03/20 01:40:06;;;;;;;7.10;4.90;;;;;;;3.96;62.73;100640.69;1705336;84;21318;-61
2021/03/20 01:42:33;;;;;;;7.60;5.20;;;;;;;3.92;62.76;100642.78;1687975;83;21140;-62
2021/03/20 01:45:27;;;;;;;7.22;5.15;;;;;;;3.90;62.79;100643.17;1679858;84;21600;-63
2021/03/20 01:48:09;;;;;;;7.60;5.60;;;;;;;3.90;62.80;100643.17;1705566;84;21187;-54
2021/03/20 01:50:47;;;;;;;8.63;5.97;;;;;;;3.88;62.77;100648.77;1702993;83;21172;-55
2021/03/20 01:53:44;;;;;;;7.00;5.03;;;;;;;3.86;62.78;100647.43;1677980;85;21615;-54
2021/03/20 01:56:15;;;;;;;5.72;3.75;;;;;;;3.84;62.82;100645.66;1688762;84;21603;-63
2021/03/20 01:58:43;;;;;;;7.08;4.25;;;;;;;3.81;62.75;100641.25;1706312;84;21627;-63
2021/03/20 02:01:24;;;;;;;8.05;4.62;;;;;;;3.75;62.60;100638.95;1700187;84;21175;-63
2021/03/20 02:03:53;;;;;;;8.63;5.62;;;;;;;3.64;62.68;100641.35;1706135;84;21184;-63
2021/03/20 02:06:21;;;;;;;7.25;4.55;;;;;;;3.55;62.82;100641.61;1705533;84;21140;-54
2021/03/20 02:08:49;;;;;;;7.80;4.97;;;;;;;3.49;63.08;100640.63;1700394;83;21160;-63
2021/03/20 02:11:50;;;;;;;7.80;5.40;;;;;;;3.49;63.03;100643.22;1674519;85;21164;-55
2021/03/20 02:14:36;;;;;;;8.53;5.72;;;;;;;3.45;63.02;100639.66;1653343;84;21203;-63
2021/03/20 02:17:21;;;;;;;8.30;5.50;;;;;;;3.36;63.37;100646.86;1701604;83;21172;-63
2021/03/20 02:20:12;;;;;;;8.28;5.37;;;;;;;3.43;63.32;100647.86;1704181;83;21228;-63
2021/03/20 02:23:09;;;;;;;10.45;6.65;;;;;;;3.47;63.25;100656.63;1703116;83;21188;-63
2021/03/20 02:26:04;;;;;;;8.23;5.97;;;;;;;3.49;63.33;100655.80;1702028;84;21164;-55
2021/03/20 02:29:20;;;;;;;11.35;6.47;;;;;;;3.53;63.29;100659.36;1682383;83;21358;-63
2021/03/20 02:32:26;;;;;;;8.20;5.45;;;;;;;3.55;63.29;100658.94;1674337;85;21176;-54
2021/03/20 02:35:15;;;;;;;9.70;6.37;;;;;;;3.57;63.31;100667.66;1697297;83;21235;-56
2021/03/20 02:38:36;;;;;;;7.92;5.28;;;;;;;3.59;63.31;100672.91;1696775;84;21176;-63
2021/03/20 02:41:27;;;;;;;8.53;5.90;;;;;;;3.58;63.24;100668.11;1702359;84;21204;-55
2021/03/20 02:44:15;;;;;;;9.23;6.37;;;;;;;3.55;63.20;100680.66;1702123;84;21330;-55
2021/03/20 02:46:58;;;;;;;11.18;7.10;;;;;;;3.52;63.21;100677.13;1680826;83;21193;-63
2021/03/20 02:49:54;;;;;;;9.28;6.25;;;;;;;3.50;63.27;100680.98;1674157;86;21208;-55
2021/03/20 02:52:39;;;;;;;11.28;7.30;;;;;;;3.50;63.24;100685.32;1694575;83;21175;-63
2021/03/20 02:55:12;;;;;;;10.23;7.25;;;;;;;3.51;63.29;100681.44;1688957;84;21160;-54
2021/03/20 02:57:51;;;;;;;12.00;7.55;;;;;;;3.56;63.30;100681.52;1647321;86;21661;-63
2021/03/20 03:00:40;;;;;;;11.35;7.20;;;;;;;3.56;63.24;100688.92;1682006;83;21160;-55
2021/03/20 03:03:12;;;;;;;11.38;7.33;;;;;;;3.55;63.39;100685.86;1803260;77;22178;-61
2021/03/20 03:05:49;;;;;;;9.90;6.92;;;;;;;3.48;63.45;100689.61;1737376;82;21162;-61
2021/03/20 03:08:27;;;;;;;13.30;6.87;;;;;;;3.48;63.49;100689.61;1714775;82;21142;-55
2021/03/20 03:11:11;;;;;;;12.28;7.28;;;;;;;3.47;63.53;100693.06;1757739;81;21128;-63
2021/03/20 03:13:44;;;;;;;10.30;6.95;;;;;;;3.47;63.52;100691.76;1746096;81;21594;-63
2021/03/20 03:16:20;;;;;;;11.12;7.17;;;;;;;3.46;63.44;100693.91;1761871;80;21146;-53
2021/03/20 03:18:55;;;;;;;12.35;7.12;;;;;;;3.44;63.40;100702.96;1761147;80;21613;-55
2021/03/20 03:21:25;;;;;;;8.88;6.50;;;;;;;3.41;63.35;100703.78;1756461;80;21221;-63
2021/03/20 03:23:52;;;;;;;12.78;8.08;;;;;;;3.35;63.41;100709.25;1761944;81;21138;-55
2021/03/20 03:26:38;;;;;;;11.33;7.25;;;;;;;3.22;63.59;100713.30;1761943;80;21602;-55
2021/03/20 03:29:12;;;;;;;9.75;6.05;;;;;;;3.18;63.52;100720.17;1736937;81;21449;-55
2021/03/20 03:31:55;;;;;;;12.13;8.63;;;;;;;3.10;63.58;100723.88;1683882;84;21177;-54
2021/03/20 03:35:08;;;;;;;11.30;7.28;;;;;;;3.08;63.48;100720.79;1686479;85;21171;-55
2021/03/20 03:38:11;;;;;;;10.75;7.58;;;;;;;3.05;63.48;100723.31;1712791;83;21536;-55
2021/03/20 03:40:52;;;;;;;10.18;6.62;;;;;;;3.03;63.46;100723.30;1708653;82;21289;-56
2021/03/20 03:43:20;;;;;;;13.03;8.60;;;;;;;3.01;63.40;100724.98;1696586;83;21127;-62
2021/03/20 03:45:48;;;;;;;10.93;7.28;;;;;;;2.98;63.34;100723.60;1702252;83;21131;-63
2021/03/20 03:48:17;;;;;;;10.55;8.00;;;;;;;2.95;63.37;100727.42;1725241;82;21594;-54
2021/03/20 03:50:46;;;;;;;11.20;7.83;;;;;;;2.97;63.34;100720.54;1723762;83;21145;-62
2021/03/20 03:53:13;;;;;;;12.75;8.08;;;;;;;2.96;63.35;100719.64;1725713;82;21167;-54
2021/03/20 03:55:41;;;;;;;11.73;8.33;;;;;;;2.99;63.29;100721.46;1684616;84;21162;-54
2021/03/20 03:58:27;;;;;;;11.55;8.03;;;;;;;2.98;63.24;100724.91;1703358;83;21543;-63
2021/03/20 04:01:35;;;;;;;14.58;9.33;;;;;;;2.95;63.21;100720.92;1725925;83;21162;-63
2021/03/20 04:04:23;;;;;;;14.00;8.35;;;;;;;2.92;63.20;100721.71;1719887;83;21154;-62
2021/03/20 04:07:31;;;;;;;13.45;9.18;;;;;;;2.89;63.26;100717.73;1697728;82;21103;-55
2021/03/20 04:10:32;;;;;;;17.57;9.15;;;;;;;2.87;63.24;100719.41;1699488;84;21572;-53
2021/03/20 04:13:27;;;;;;;12.85;8.93;;;;;;;2.83;63.30;100722.81;1698503;83;21175;-61
2021/03/20 04:16:02;;;;;;;15.90;10.32;;;;;;;2.81;63.36;100725.79;1725603;82;21138;-63
2021/03/20 04:18:59;;;;;;;12.33;8.65;;;;;;;2.79;63.38;100735.27;1688761;84;21577;-63
2021/03/20 04:21:44;;;;;;;12.65;8.80;;;;;;;2.74;63.45;100743.37;1718599;82;21192;-63
2021/03/20 04:24:35;;;;;;;11.48;8.03;;;;;;;2.74;63.39;100749.43;1704945;83;21277;-62
2021/03/20 04:27:17;;;;;;;11.93;8.30;;;;;;;2.77;63.36;100752.11;1705101;83;21156;-62
2021/03/20 04:29:59;;;;;;;11.57;7.97;;;;;;;2.78;63.39;100748.67;1712922;84;21564;-55
2021/03/20 04:32:48;;;;;;;10.85;7.95;;;;;;;2.83;63.54;100746.20;1716992;82;21189;-62
2021/03/20 04:35:49;;;;;;;11.50;7.78;;;;;;;2.87;63.45;100743.25;1717927;83;21169;-53
2021/03/20 04:38:17;;;;;;;11.83;8.50;;;;;;;2.90;63.38;100752.00;1716924;83;21177;-55
2021/03/20 04:40:49;;;;;;;11.75;8.23;;;;;;;2.93;63.37;100755.11;1708290;83;21154;-61
2021/03/20 04:43:23;;;;;;;13.30;9.15;;;;;;;2.93;63.38;100760.31;1710049;83;21342;-56
2021/03/20 04:46:02;;;;;;;13.83;8.85;;;;;;;2.97;63.38;100759.55;1714682;83;21733;-54
2021/03/20 04:48:39;;;;;;;13.88;9.35;;;;;;;2.97;63.45;100768.65;1714246;83;21111;-61
2021/03/20 04:51:27;;;;;;;13.55;8.30;;;;;;;3.00;63.51;100783.03;1717355;82;21178;-54
2021/03/20 04:54:00;;;;;;;11.78;7.65;;;;;;;3.02;63.46;100782.65;1717003;83;21151;-61
2021/03/20 04:56:28;;;;;;;12.68;8.40;;;;;;;3.03;63.61;100788.31;1715254;83;21151;-62
2021/03/20 04:58:59;;;;;;;13.15;9.05;;;;;;;3.08;63.62;100788.02;1708953;83;21602;-62
2021/03/20 05:01:48;;;;;;;11.28;7.97;;;;;;;3.20;63.47;100790.03;1706221;82;21538;-62
2021/03/20 05:04:26;;;;;;;13.78;8.40;;;;;;;3.26;63.42;100795.79;1719502;83;21167;-54
2021/03/20 05:06:54;;;;;;;13.45;9.18;;;;;;;3.30;63.19;100794.16;1723177;83;21177;-60
2021/03/20 05:09:23;;;;;;;13.70;8.65;;;;;;;3.30;63.36;100798.92;1675966;83;21454;-54
2021/03/20 05:12:02;;;;;;;9.10;6.40;;;;;;;3.32;63.29;100801.15;1708923;83;21171;-54
2021/03/20 05:14:59;;;;;;;11.97;8.23;;;;;;;3.35;63.21;100806.43;1711932;83;21148;-60
2021/03/20 05:17:27;;;;;;;12.13;7.72;;;;;;;3.38;63.27;100803.90;1712950;84;21164;-61
2021/03/20 05:19:55;;;;;;;10.93;7.47;;;;;;;3.40;63.29;100808.72;1709440;83;21147;-54
2021/03/20 05:22:30;;;;;;;12.68;8.00;;;;;;;3.51;63.03;100810.27;1692089;83;21208;-53
2021/03/20 05:24:59;;;;;;;10.50;7.12;;;;;;;3.32;63.78;100809.36;1712670;83;21160;-54
2021/03/20 05:27:30;;;;;;;11.30;7.30;;;;;;;3.58;63.18;100807.38;1713698;83;21210;-54
2021/03/20 05:29:58;;;;;;;12.23;7.58;;;;;;;3.64;63.11;100807.96;1697447;83;21293;-60
2021/03/20 05:32:29;;;;;;;12.30;8.38;;;;;;;3.72;63.11;100808.58;1701778;83;21217;-55
2021/03/20 05:34:59;;;;;;;11.08;7.35;;;;;;;3.75;63.00;100809.09;1720065;83;21167;-60
2021/03/20 05:37:31;;;;;;;13.45;8.35;;;;;;;3.78;63.13;100810.44;1719974;82;21190;-60
2021/03/20 05:39:59;;;;;;;11.28;7.83;;;;;;;3.85;63.07;100821.45;1711700;83;21139;-60
2021/03/20 05:43:06;;;;;;;11.15;8.00;;;;;;;3.94;63.27;100819.50;1719626;82;21201;-61
2021/03/20 05:45:49;;;;;;;11.95;7.37;;;;;;;3.71;63.51;100826.35;1713836;83;21130;-56
2021/03/20 05:48:35;;;;;;;12.63;7.78;;;;;;;3.64;63.45;100828.34;1704106;83;21159;-54
2021/03/20 05:51:23;;;;;;;13.50;9.18;;;;;;;3.71;63.54;100825.05;1690941;83;21175;-55
2021/03/20 05:54:23;;;;;;;14.23;9.23;;;;;;;3.91;63.97;100836.36;1691257;85;21357;-61
2021/03/20 05:57:12;;;;;;;10.98;8.00;;;;;;;3.94;63.85;100829.02;1698726;83;21143;-57
2021/03/20 05:59:55;;;;;;;12.28;8.43;;;;;;;4.13;63.70;100836.80;1719608;83;21175;-63
2021/03/20 06:02:47;;;;;;;12.70;8.75;;;;;;;4.26;63.34;100837.53;1718014;82;21622;-54
2021/03/20 06:05:29;;;;;;;10.95;7.33;;;;;;;4.37;63.46;100840.80;1709972;84;21151;-61
2021/03/20 06:08:19;;;;;;;13.90;8.48;;;;;;;4.49;63.11;100838.41;1707726;82;21551;-54
2021/03/20 06:10:57;;;;;;;14.28;8.73;;;;;;;4.55;63.37;100844.19;1711394;84;21163;-60
2021/03/20 06:14:14;;;;;;;12.63;8.03;;;;;;;4.53;63.04;100843.28;1709873;83;21152;-60
2021/03/20 06:17:09;;;;;;;11.10;8.40;;;;;;;4.57;62.77;100843.36;1689328;83;21173;-61
2021/03/20 06:20:14;;;;;;;13.28;8.53;;;;;;;4.85;62.68;100837.39;1683600;85;21143;-54
2021/03/20 06:23:02;;;;;;;11.85;8.23;;;;;;;4.95;62.92;100846.25;1694099;84;21596;-61
2021/03/20 06:26:02;;;;;;;13.10;8.85;;;;;;;5.19;62.95;100840.59;1705727;83;21179;-54
2021/03/20 06:28:53;;;;;;;13.72;8.80;;;;;;;5.18;62.50;100845.77;1756322;82;21562;-61
2021/03/20 06:31:42;;;;;;;13.50;8.20;;;;;;;5.27;62.42;100858.98;1747435;82;21582;-61
2021/03/20 06:34:33;;;;;;;12.43;8.25;;;;;;;5.15;61.52;100853.54;1732462;81;21166;-54
2021/03/20 06:37:10;;;;;;;10.98;7.85;;;;;;;5.34;61.67;100856.04;1726198;82;21178;-60
2021/03/20 06:39:55;;;;;;;11.63;7.53;;;;;;;5.19;61.37;100858.86;1739539;82;21139;-60
2021/03/20 06:42:26;;;;;;;11.25;7.22;;;;;;;5.68;61.06;100857.91;1749345;80;21567;-54
2021/03/20 06:45:07;;;;;;;11.57;8.10;;;;;;;5.72;60.59;100855.80;1756062;82;21257;-54
2021/03/20 06:47:36;;;;;;;11.90;8.03;;;;;;;5.91;60.96;100850.84;1755998;80;21131;-60
2021/03/20 06:50:24;;;;;;;16.85;9.88;;;;;;;6.08;60.50;100852.00;1733725;82;21281;-55
2021/03/20 06:52:58;;;;;;;14.45;9.25;;;;;;;6.22;60.75;100844.34;1749419;82;21594;-59
2021/03/20 06:55:31;;;;;;;18.02;9.55;;;;;;;6.34;60.91;100838.38;1755778;81;21119;-54
2021/03/20 06:58:03;;;;;;;12.58;8.50;;;;;;;6.50;59.75;100842.05;1753658;80;21103;-60
2021/03/20 07:00:34;;;;;;;10.60;7.80;;;;;;;6.47;59.06;100846.38;1734431;82;21107;-60
2021/03/20 07:03:11;;;;;;;;;;;;;;;6.67;59.77;100847.92;1755363;81;21554;-60
2021/03/20 07:05:47;;;;;;;10.75;6.92;;;;;;;6.80;59.27;100847.20;1762428;81;20163;-60
2021/03/20 07:08:37;;;;;;;10.10;7.15;;;;;;;6.88;59.06;100850.31;1761438;80;21607;-54
2021/03/20 07:11:04;;;;;;;14.53;8.88;;;;;;;7.05;59.34;100852.67;1739513;81;21162;-61
2021/03/20 07:13:44;;;;;;;16.80;10.80;;;;;;;7.27;58.35;100856.82;1731322;83;21183;-55
2021/03/20 07:16:16;;;;;;;27.40;13.53;;;;;;;7.49;58.49;100856.98;1735540;80;21586;-54
2021/03/20 07:18:58;;;;;;;13.43;7.50;;;;;;;7.59;57.68;100861.44;1754318;81;21154;-54
2021/03/20 07:21:36;;;;;;;;;;;;;;;7.51;56.09;100858.74;1764234;80;21716;-54
2021/03/20 07:24:15;;;;;;;10.82;6.53;;;;;;;7.50;57.06;100855.70;1761800;81;20140;-54
2021/03/20 07:26:58;;;;;;;8.60;5.85;;;;;;;7.58;57.23;100862.30;1760476;81;21168;-62
2021/03/20 07:29:52;;;;;;;8.48;5.78;;;;;;;7.62;55.31;100865.40;1738232;81;21288;-62
2021/03/20 07:32:30;;;;;;;10.10;5.80;;;;;;;7.67;55.92;100865.00;1740872;81;21170;-56
2021/03/20 07:35:18;;;;;;;8.70;6.30;;;;;;;7.68;54.91;100862.83;1748055;81;21103;-56
2021/03/20 07:37:52;;;;;;;8.53;5.60;;;;;;;8.08;56.55;100860.02;1809468;77;22162;-62
2021/03/20 07:40:31;;;;;;;9.88;5.70;;;;;;;8.22;55.02;100864.02;1761839;80;21135;-63
2021/03/20 07:43:20;;;;;;;7.80;5.75;;;;;;;8.43;54.82;100863.25;1761801;80;21188;-57
2021/03/20 07:45:49;;;;;;;8.85;5.37;;;;;;;8.57;55.18;100861.59;1761787;81;21115;-63
2021/03/20 07:48:28;;;;;;;7.45;4.90;;;;;;;8.61;52.93;100857.23;1761740;81;21188;-62
2021/03/20 07:51:17;;;;;;;8.03;4.97;;;;;;;8.61;52.68;100865.09;1761921;81;21139;-57
2021/03/20 07:53:47;;;;;;;9.60;5.85;;;;;;;8.67;53.26;100860.30;1761154;81;21300;-57
2021/03/20 07:56:34;;;;;;;9.23;4.85;;;;;;;8.77;52.69;100863.39;1762033;81;21143;-63
2021/03/20 07:59:29;;;;;;;8.18;5.30;;;;;;;8.85;52.06;100857.73;1761799;81;21254;-56
2021/03/20 08:01:59;;;;;;;8.75;5.75;;;;;;;8.95;51.73;100860.39;1751665;80;21272;-63
2021/03/20 08:04:49;;;;;;;;;;;;;;;9.31;51.89;100862.17;1742756;81;21150;-57
2021/03/20 08:07:46;;;;;;;7.33;5.17;;;;;;;9.29;50.43;100864.37;1761774;81;20120;-57
2021/03/20 08:10:34;;;;;;;9.33;5.90;;;;;;;9.50;51.33;100859.11;1761230;81;21186;-56
2021/03/20 08:13:17;;;;;;;7.00;4.97;;;;;;;9.62;50.81;100863.93;1761727;80;21365;-58
2021/03/20 08:15:55;;;;;;;7.95;5.33;;;;;;;9.86;50.46;100858.23;1761793;81;21626;-63
2021/03/20 08:18:28;;;;;;;8.35;5.30;;;;;;;9.94;48.56;100851.17;1761779;81;21174;-59
2021/03/20 08:21:05;;;;;;;6.90;5.15;;;;;;;10.03;48.24;100858.19;1740738;81;21107;-65
2021/03/20 08:24:13;;;;;;;9.25;6.22;;;;;;;10.02;48.05;100861.24;1743364;81;21142;-65
2021/03/20 08:26:52;;;;;;;8.35;4.92;;;;;;;10.19;49.65;100858.56;1761942;80;22468;-59
2021/03/20 08:30:04;;;;;;;6.70;4.78;;;;;;;10.46;47.78;100859.81;1749085;81;21567;-65
2021/03/20 08:32:57;;;;;;;7.22;4.50;;;;;;;10.40;46.20;100855.47;1699217;83;21115;-59
2021/03/20 08:35:34;;;;;;;8.40;5.42;;;;;;;10.13;45.21;100861.23;1705378;84;21628;-65
2021/03/20 08:38:23;;;;;;;7.15;4.50;;;;;;;10.17;44.88;100860.31;1687127;83;21155;-58
2021/03/20 08:41:10;;;;;;;7.05;5.03;;;;;;;10.29;43.86;100862.48;1691346;83;21161;-65
2021/03/20 08:44:16;;;;;;;9.48;5.87;;;;;;;10.16;44.34;100865.14;1750963;82;21264;-58
2021/03/20 08:47:20;;;;;;;7.00;4.75;;;;;;;10.46;45.16;100872.98;1743308;81;21137;-59
2021/03/20 08:50:19;;;;;;;6.33;4.40;;;;;;;10.62;44.57;100869.41;1721339;83;21295;-65
2021/03/20 08:53:20;;;;;;;5.33;4.03;;;;;;;10.42;42.52;100878.70;1735089;82;21125;-58
2021/03/20 08:56:17;;;;;;;6.85;4.17;;;;;;;10.46;42.73;100875.19;1746984;81;21570;-58
2021/03/20 08:59:10;;;;;;;5.62;4.20;;;;;;;10.37;40.07;100879.12;1723770;83;21182;-65
2021/03/20 09:02:01;;;;;;;5.75;4.05;;;;;;;10.15;41.72;100884.89;1740138;82;21592;-65
2021/03/20 09:04:32;;;;;;;5.72;3.80;;;;;;;10.16;39.99;100885.33;1744805;81;21137;-58
2021/03/20 09:07:15;;;;;;;6.70;4.22;;;;;;;10.29;41.34;100881.80;1753834;82;21142;-55
2021/03/20 09:09:49;;;;;;;5.75;4.12;;;;;;;10.27;41.00;100885.73;1724580;82;21257;-55
2021/03/20 09:12:34;;;;;;;6.70;4.08;;;;;;;10.33;41.04;100890.54;1717578;82;21276;-62
2021/03/20 09:15:18;;;;;;;6.25;4.10;;;;;;;10.42;41.85;100890.55;1750961;81;21110;-62
2021/03/20 09:17:46;;;;;;;7.17;4.60;;;;;;;10.68;41.14;100875.97;1753780;82;21150;-55
2021/03/20 09:20:43;;;;;;;6.42;4.00;;;;;;;10.99;40.12;100874.94;1753419;82;21153;-62
2021/03/20 09:23:34;;;;;;;9.35;5.17;;;;;;;11.10;40.17;100882.30;1746463;81;21703;-55
2021/03/20 09:26:07;;;;;;;7.97;4.22;;;;;;;10.79;40.03;100877.22;1732636;82;21125;-56
2021/03/20 09:28:54;;;;;;;6.62;3.87;;;;;;;10.69;40.31;100882.09;1732759;82;21136;-62
2021/03/20 09:31:35;;;;;;;7.67;5.03;;;;;;;10.56;40.42;100878.64;1747257;81;21149;-62
2021/03/20 09:34:37;;;;;;;7.75;5.03;;;;;;;10.87;41.65;100864.00;1725517;82;21431;-63
2021/03/20 09:37:22;;;;;;;6.75;4.70;;;;;;;11.09;40.69;100875.73;1721426;82;21203;-55
2021/03/20 09:39:52;;;;;;;6.30;4.50;;;;;;;11.39;41.20;100870.70;1731581;82;21319;-62
2021/03/20 09:42:30;;;;;;;;;;;;;;;11.67;41.17;100861.69;1746039;81;21567;-55
2021/03/20 09:45:14;;;;;;;5.53;4.00;;;;;;;12.08;39.85;100866.14;1748090;81;20183;-55
2021/03/20 09:47:53;;;;;;;6.58;4.12;;;;;;;12.41;37.67;100870.17;1748369;81;21144;-62
2021/03/20 09:50:29;;;;;;;6.23;4.70;;;;;;;12.22;37.44;100875.22;1742889;81;21135;-63
2021/03/20 09:53:14;;;;;;;8.23;4.22;;;;;;;12.03;37.73;100870.16;1748480;81;21425;-64
2021/03/20 09:55:52;;;;;;;7.30;4.50;;;;;;;11.81;37.51;100874.28;1718766;82;21650;-64
2021/03/20 09:58:25;;;;;;;7.62;4.47;;;;;;;11.79;38.21;100871.23;1718538;82;21655;-64
2021/03/20 10:00:59;;;;;;;6.15;4.40;;;;;;;11.82;37.38;100874.71;1741552;81;21128;-57
2021/03/20 10:03:45;;;;;;;6.65;4.30;;;;;;;11.72;37.99;100871.30;1748412;82;21154;-56
2021/03/20 10:06:28;;;;;;;5.60;4.10;;;;;;;11.87;38.62;100876.00;1716873;82;21127;-64
2021/03/20 10:09:04;;;;;;;6.03;3.67;;;;;;;11.77;36.90;100873.88;1719589;82;21143;-63
2021/03/20 10:11:59;;;;;;;6.28;4.05;;;;;;;11.74;36.88;100877.42;1748050;81;21196;-64
2021/03/20 10:14:33;;;;;;;5.22;3.90;;;;;;;11.53;35.82;100874.53;1747951;82;21567;-63
2021/03/20 10:17:17;;;;;;;5.60;4.12;;;;;;;11.22;36.69;100878.73;1746991;82;21644;-63
2021/03/20 10:20:15;;;;;;;7.58;4.30;;;;;;;11.10;37.45;100890.66;1748293;82;21199;-56
2021/03/20 10:22:53;;;;;;;5.95;3.47;;;;;;;10.87;35.55;100886.39;1809433;77;22195;-55
2021/03/20 10:25:22;;;;;;;5.90;3.80;;;;;;;10.79;36.11;100894.34;1764785;81;21146;-56
2021/03/20 10:28:03;;;;;;;6.22;4.60;;;;;;;10.88;37.90;100889.45;1731025;80;21176;-63
2021/03/20 10:30:34;;;;;;;6.20;4.20;;;;;;;11.21;38.78;100880.94;1723958;83;21179;-64
2021/03/20 10:33:15;;;;;;;4.85;3.37;;;;;;;11.55;36.31;100883.31;1759095;81;21190;-64
2021/03/20 10:35:44;;;;;;;4.97;3.60;;;;;;;11.31;35.98;100889.64;1755321;81;21190;-64
2021/03/20 10:38:26;;;;;;;6.12;3.87;;;;;;;11.39;36.49;100882.98;1743417;81;21173;-57
2021/03/20 10:41:05;;;;;;;6.25;3.80;;;;;;;11.70;39.13;100882.30;1755595;81;21162;-63
2021/03/20 10:43:37;;;;;;;6.12;3.92;;;;;;;12.05;37.69;100883.75;1762074;81;21171;-57
2021/03/20 10:46:05;;;;;;;6.12;3.98;;;;;;;12.17;35.47;100872.18;1725179;81;21718;-58
2021/03/20 10:48:33;;;;;;;5.60;3.92;;;;;;;12.29;36.23;100872.52;1731872;82;21839;-57
2021/03/20 10:51:05;;;;;;;7.05;4.70;;;;;;;12.36;34.38;100876.41;1748851;81;21158;-64
2021/03/20 10:53:41;;;;;;;20.05;9.23;;;;;;;12.41;34.90;100867.95;1760095;81;21807;-64
2021/03/20 10:56:27;;;;;;;31.52;14.28;;;;;;;12.38;35.21;100867.56;1730144;81;21178;-63
2021/03/20 10:58:54;;;;;;;14.28;7.03;;;;;;;12.42;35.77;100873.66;1731440;82;21332;-63
2021/03/20 11:01:32;;;;;;;13.32;8.23;;;;;;;12.30;35.19;100866.77;1748188;81;21639;-56
2021/03/20 11:04:00;;;;;;;7.75;5.35;;;;;;;11.99;35.44;100859.17;1756872;80;21257;-56
2021/03/20 11:06:28;;;;;;;11.12;6.15;;;;;;;12.18;35.17;100866.02;1743328;81;21131;-56
2021/03/20 11:09:24;;;;;;;8.03;5.30;;;;;;;12.32;34.99;100870.27;1761759;81;21143;-55
2021/03/20 11:12:03;;;;;;;7.20;4.53;;;;;;;12.24;33.62;100867.73;1756104;80;21330;-56
2021/03/20 11:14:31;;;;;;;10.03;6.67;;;;;;;12.15;33.97;100865.19;1731875;81;21633;-62
2021/03/20 11:17:08;;;;;;;;;;;;;;;12.43;34.98;100874.98;1729704;81;21139;-56
2021/03/20 11:19:38;;;;;;;12.85;8.48;;;;;;;12.55;33.77;100873.09;1736597;81;20265;-58
2021/03/20 11:22:33;;;;;;;12.53;8.38;;;;;;;12.52;33.20;100873.98;1738060;80;21135;-55
2021/03/20 11:25:09;;;;;;;8.08;4.70;;;;;;;12.60;32.81;100870.81;1719356;83;21186;-63
2021/03/20 11:27:39;;;;;;;6.50;3.60;;;;;;;12.59;34.61;100865.53;1719231;82;21551;-57
2021/03/20 11:30:19;;;;;;;5.37;3.77;;;;;;;11.97;33.21;100871.50;1741086;82;21285;-56
2021/03/20 11:32:47;;;;;;;8.10;4.42;;;;;;;11.98;33.54;100874.11;1718900;82;21177;-64
2021/03/20 11:35:35;;;;;;;11.08;6.50;;;;;;;11.77;34.12;100872.55;1718738;83;21135;-57
2021/03/20 11:38:03;;;;;;;16.80;8.60;;;;;;;11.72;34.30;100866.02;1708739;83;21103;-58
2021/03/20 11:40:37;;;;;;;6.95;4.08;;;;;;;11.98;35.07;100874.57;1730523;82;21167;-56
2021/03/20 11:43:18;;;;;;;10.13;6.60;;;;;;;12.10;33.81;100862.61;1737833;82;21177;-64
2021/03/20 11:45:47;;;;;;;11.33;7.65;;;;;;;12.34;34.08;100860.14;1748434;82;21610;-63
2021/03/20 11:48:29;;;;;;;23.62;12.28;;;;;;;12.42;32.72;100861.78;1739148;82;21175;-64
2021/03/20 11:50:58;;;;;;;11.80;7.35;;;;;;;12.60;32.67;100857.61;1664753;83;21614;-56
2021/03/20 11:53:30;;;;;;;8.73;5.78;;;;;;;12.94;32.75;100850.98;1718541;82;21159;-56
2021/03/20 11:55:58;;;;;;;21.00;11.18;;;;;;;12.93;32.30;100854.53;1718401;83;21123;-57
2021/03/20 11:58:30;;;;;;;9.63;5.75;;;;;;;12.83;30.63;100859.05;1734478;82;21147;-56
2021/03/20 12:01:00;;;;;;;25.80;16.82;;;;;;;12.85;31.38;100859.90;1748422;82;21591;-63
2021/03/20 12:03:36;;;;;;;55.63;43.05;;;;;;;12.79;31.64;100863.52;1748418;82;21175;-57
2021/03/20 12:06:21;;;;;;;14.65;13.10;;;;;;;12.75;32.78;100859.63;1741367;81;21138;-62
2021/03/20 12:08:55;;;;;;;6.83;5.20;;;;;;;12.89;32.31;100851.50;1742970;82;21124;-64
2021/03/20 12:11:46;;;;;;;6.70;5.03;;;;;;;12.95;31.01;100844.81;1748334;81;21116;-57
2021/03/20 12:14:39;;;;;;;6.85;4.33;;;;;;;12.62;30.08;100847.89;1748416;82;21567;-64
2021/03/20 12:17:22;;;;;;;38.50;32.83;;;;;;;12.68;31.85;100853.99;1739024;82;21115;-56
2021/03/20 12:20:29;;;;;;;27.32;24.25;;;;;;;12.61;32.58;100846.15;1748515;82;21142;-64
2021/03/20 12:23:19;;;;;;;43.40;35.00;;;;;;;12.72;31.98;100851.73;1754388;81;21181;-63
2021/03/20 12:25:52;;;;;;;133.47;110.08;;;;;;;12.59;30.06;100853.22;1749957;81;21261;-64